Terminal Aerodrome Forecast
Issued by NWS Indianapolis, IN

Home | Current Version | Previous Version | Text Only | Print | Product List | Glossary On
Versions: 1 2 3 4 5 6 7 8 9 10 11 12 13 14 15 16 17 18 19 20 21 22 23 24 25 26
000
FTUS43 KIND 242325
TAFIND
TAF
KIND 242325Z 2500/2606 34007KT P6SM RA OVC045
     FM250200 34008KT 6SM RA OVC010
     FM250600 33008KT 5SM RA OVC008
     FM250900 32008KT P6SM VCSH OVC008
     FM251700 31010KT P6SM OVC015
     FM252300 30009KT P6SM BKN050
     FM260100 30007KT P6SM SCT100=

USA.gov is the U.S. government's official web portal to all federal, state and local government web resources and services.